sensor_id;sensor_type;location;lat;lon;timestamp;temperature;humidity
21312;DHT22;18076;52.154;10.570;2022-10-16T00:00:30;14.80;99.90
21312;DHT22;18076;52.154;10.570;2022-10-16T00:02:55;14.70;99.90
21312;DHT22;18076;52.154;10.570;2022-10-16T00:05:21;14.70;99.90
21312;DHT22;18076;52.154;10.570;2022-10-16T00:07:46;14.70;99.90
21312;DHT22;18076;52.154;10.570;2022-10-16T00:10:12;14.60;99.90
21312;DHT22;18076;52.154;10.570;2022-10-16T00:12:37;14.60;99.90
21312;DHT22;18076;52.154;10.570;2022-10-16T00:15:03;14.60;99.90
21312;DHT22;18076;52.154;10.570;2022-10-16T00:17:30;14.60;99.90
21312;DHT22;18076;52.154;10.570;2022-10-16T00:19:55;14.60;99.90
21312;DHT22;18076;52.154;10.570;2022-10-16T00:22:22;14.50;99.90
21312;DHT22;18076;52.154;10.570;2022-10-16T00:24:47;14.40;99.90
21312;DHT22;18076;52.154;10.570;2022-10-16T00:27:13;14.40;99.90
21312;DHT22;18076;52.154;10.570;2022-10-16T00:29:38;14.30;99.90
21312;DHT22;18076;52.154;10.570;2022-10-16T00:32:04;14.20;99.90
21312;DHT22;18076;52.154;10.570;2022-10-16T00:34:30;14.20;99.90
21312;DHT22;18076;52.154;10.570;2022-10-16T00:36:56;14.10;99.90
21312;DHT22;18076;52.154;10.570;2022-10-16T00:39:21;14.20;99.90
21312;DHT22;18076;52.154;10.570;2022-10-16T00:41:47;14.20;99.90
21312;DHT22;18076;52.154;10.570;2022-10-16T00:46:57;14.20;99.90
21312;DHT22;18076;52.154;10.570;2022-10-16T00:49:23;14.20;99.90
21312;DHT22;18076;52.154;10.570;2022-10-16T00:51:52;14.20;99.90
21312;DHT22;18076;52.154;10.570;2022-10-16T00:54:26;14.20;99.90
21312;DHT22;18076;52.154;10.570;2022-10-16T00:56:52;14.20;99.90
21312;DHT22;18076;52.154;10.570;2022-10-16T00:59:26;14.20;99.90
21312;DHT22;18076;52.154;10.570;2022-10-16T01:01:52;14.20;99.90
21312;DHT22;18076;52.154;10.570;2022-10-16T01:04:18;14.20;99.90
21312;DHT22;18076;52.154;10.570;2022-10-16T01:17:10;14.30;99.90
21312;DHT22;18076;52.154;10.570;2022-10-16T01:19:52;14.40;99.90
21312;DHT22;18076;52.154;10.570;2022-10-16T01:22:20;14.40;99.90
21312;DHT22;18076;52.154;10.570;2022-10-16T01:24:49;14.30;99.90
21312;DHT22;18076;52.154;10.570;2022-10-16T01:27:20;14.40;99.90
21312;DHT22;18076;52.154;10.570;2022-10-16T01:32:31;14.30;99.90
21312;DHT22;18076;52.154;10.570;2022-10-16T01:35:00;14.30;99.90
21312;DHT22;18076;52.154;10.570;2022-10-16T01:37:46;14.30;99.90
21312;DHT22;18076;52.154;10.570;2022-10-16T01:40:14;14.20;99.90
21312;DHT22;18076;52.154;10.570;2022-10-16T01:42:54;14.20;99.90
21312;DHT22;18076;52.154;10.570;2022-10-16T01:45:20;14.20;99.90
21312;DHT22;18076;52.154;10.570;2022-10-16T01:47:46;14.30;99.90
21312;DHT22;18076;52.154;10.570;2022-10-16T01:50:13;14.30;99.90
21312;DHT22;18076;52.154;10.570;2022-10-16T01:52:41;14.30;99.90
21312;DHT22;18076;52.154;10.570;2022-10-16T01:55:08;14.30;99.90
21312;DHT22;18076;52.154;10.570;2022-10-16T01:57:35;14.30;99.90
21312;DHT22;18076;52.154;10.570;2022-10-16T02:00:04;14.30;99.90
21312;DHT22;18076;52.154;10.570;2022-10-16T02:02:32;14.30;99.90
21312;DHT22;18076;52.154;10.570;2022-10-16T02:05:01;14.20;99.90
21312;DHT22;18076;52.154;10.570;2022-10-16T02:07:30;14.10;99.90
21312;DHT22;18076;52.154;10.570;2022-10-16T02:09:55;14.10;99.90
21312;DHT22;18076;52.154;10.570;2022-10-16T02:12:23;14.10;99.90
21312;DHT22;18076;52.154;10.570;2022-10-16T02:14:51;14.00;99.90
21312;DHT22;18076;52.154;10.570;2022-10-16T02:17:17;14.00;99.90
21312;DHT22;18076;52.154;10.570;2022-10-16T02:19:43;14.00;99.90
21312;DHT22;18076;52.154;10.570;2022-10-16T02:22:09;13.90;99.90
21312;DHT22;18076;52.154;10.570;2022-10-16T02:24:46;13.90;99.90
21312;DHT22;18076;52.154;10.570;2022-10-16T02:29:42;13.90;99.90
21312;DHT22;18076;52.154;10.570;2022-10-16T02:32:14;13.90;99.90
21312;DHT22;18076;52.154;10.570;2022-10-16T02:34:40;14.00;99.90
21312;DHT22;18076;52.154;10.570;2022-10-16T02:37:06;14.00;99.90
21312;DHT22;18076;52.154;10.570;2022-10-16T02:39:32;14.00;99.90
21312;DHT22;18076;52.154;10.570;2022-10-16T02:41:58;14.00;99.90
21312;DHT22;18076;52.154;10.570;2022-10-16T02:44:24;13.90;99.90
21312;DHT22;18076;52.154;10.570;2022-10-16T02:46:49;13.90;99.90
21312;DHT22;18076;52.154;10.570;2022-10-16T02:49:15;13.90;99.90
21312;DHT22;18076;52.154;10.570;2022-10-16T02:51:40;13.90;99.90
21312;DHT22;18076;52.154;10.570;2022-10-16T02:54:06;13.80;99.90
21312;DHT22;18076;52.154;10.570;2022-10-16T02:56:32;13.80;99.90
21312;DHT22;18076;52.154;10.570;2022-10-16T02:58:57;13.70;99.90
21312;DHT22;18076;52.154;10.570;2022-10-16T03:01:23;13.70;99.90
21312;DHT22;18076;52.154;10.570;2022-10-16T03:03:49;13.70;99.90
21312;DHT22;18076;52.154;10.570;2022-10-16T03:06:14;13.70;99.90
21312;DHT22;18076;52.154;10.570;2022-10-16T03:08:40;13.80;99.90
21312;DHT22;18076;52.154;10.570;2022-10-16T03:11:05;13.70;99.90
21312;DHT22;18076;52.154;10.570;2022-10-16T03:13:31;13.70;99.90
21312;DHT22;18076;52.154;10.570;2022-10-16T03:15:56;13.70;99.90
21312;DHT22;18076;52.154;10.570;2022-10-16T03:18:22;13.70;99.90
21312;DHT22;18076;52.154;10.570;2022-10-16T03:20:47;13.70;99.90
21312;DHT22;18076;52.154;10.570;2022-10-16T03:23:13;13.60;99.90
21312;DHT22;18076;52.154;10.570;2022-10-16T03:25:39;13.60;99.90
21312;DHT22;18076;52.154;10.570;2022-10-16T03:28:04;13.50;99.90
21312;DHT22;18076;52.154;10.570;2022-10-16T03:30:30;13.50;99.90
21312;DHT22;18076;52.154;10.570;2022-10-16T03:32:55;13.50;99.90
21312;DHT22;18076;52.154;10.570;2022-10-16T03:35:21;13.40;99.90
21312;DHT22;18076;52.154;10.570;2022-10-16T03:37:47;13.30;99.90
21312;DHT22;18076;52.154;10.570;2022-10-16T03:40:12;13.40;99.90
21312;DHT22;18076;52.154;10.570;2022-10-16T03:42:38;13.40;99.90
21312;DHT22;18076;52.154;10.570;2022-10-16T03:45:04;13.40;99.90
21312;DHT22;18076;52.154;10.570;2022-10-16T03:47:29;13.50;99.90
21312;DHT22;18076;52.154;10.570;2022-10-16T03:49:55;13.40;99.90
21312;DHT22;18076;52.154;10.570;2022-10-16T03:52:21;13.40;99.90
21312;DHT22;18076;52.154;10.570;2022-10-16T03:54:47;13.30;99.90
21312;DHT22;18076;52.154;10.570;2022-10-16T03:57:12;13.30;99.90
21312;DHT22;18076;52.154;10.570;2022-10-16T03:59:38;13.30;99.90
21312;DHT22;18076;52.154;10.570;2022-10-16T04:02:03;13.20;99.90
21312;DHT22;18076;52.154;10.570;2022-10-16T04:04:29;13.20;99.90
21312;DHT22;18076;52.154;10.570;2022-10-16T04:06:54;13.20;99.90
21312;DHT22;18076;52.154;10.570;2022-10-16T04:09:20;13.20;99.90
21312;DHT22;18076;52.154;10.570;2022-10-16T04:11:45;13.20;99.90
21312;DHT22;18076;52.154;10.570;2022-10-16T04:14:11;13.10;99.90
21312;DHT22;18076;52.154;10.570;2022-10-16T04:16:36;13.10;99.90
21312;DHT22;18076;52.154;10.570;2022-10-16T04:19:02;13.00;99.90
21312;DHT22;18076;52.154;10.570;2022-10-16T04:21:27;13.00;99.90
21312;DHT22;18076;52.154;10.570;2022-10-16T04:23:53;13.00;99.90
21312;DHT22;18076;52.154;10.570;2022-10-16T04:26:19;12.90;99.90
21312;DHT22;18076;52.154;10.570;2022-10-16T04:28:44;12.90;99.90
21312;DHT22;18076;52.154;10.570;2022-10-16T04:31:10;12.80;99.90
21312;DHT22;18076;52.154;10.570;2022-10-16T04:33:35;12.80;99.90
21312;DHT22;18076;52.154;10.570;2022-10-16T04:36:01;12.80;99.90
21312;DHT22;18076;52.154;10.570;2022-10-16T04:38:27;12.80;99.90
21312;DHT22;18076;52.154;10.570;2022-10-16T04:40:53;12.70;99.90
21312;DHT22;18076;52.154;10.570;2022-10-16T04:43:19;12.70;99.90
21312;DHT22;18076;52.154;10.570;2022-10-16T04:45:44;12.70;99.90
21312;DHT22;18076;52.154;10.570;2022-10-16T04:48:10;12.70;99.90
21312;DHT22;18076;52.154;10.570;2022-10-16T04:50:35;12.80;99.90
21312;DHT22;18076;52.154;10.570;2022-10-16T04:53:01;12.90;99.90
21312;DHT22;18076;52.154;10.570;2022-10-16T04:55:27;13.00;99.90
21312;DHT22;18076;52.154;10.570;2022-10-16T04:57:52;13.10;99.90
21312;DHT22;18076;52.154;10.570;2022-10-16T05:00:18;13.10;99.90
21312;DHT22;18076;52.154;10.570;2022-10-16T05:02:43;13.10;99.90
21312;DHT22;18076;52.154;10.570;2022-10-16T05:05:09;13.20;99.90
21312;DHT22;18076;52.154;10.570;2022-10-16T05:07:35;13.20;99.90
21312;DHT22;18076;52.154;10.570;2022-10-16T05:10:00;13.10;99.90
21312;DHT22;18076;52.154;10.570;2022-10-16T05:12:26;13.10;99.90
21312;DHT22;18076;52.154;10.570;2022-10-16T05:14:51;13.00;99.90
21312;DHT22;18076;52.154;10.570;2022-10-16T05:17:17;13.00;99.90
21312;DHT22;18076;52.154;10.570;2022-10-16T05:19:42;12.90;99.90
21312;DHT22;18076;52.154;10.570;2022-10-16T05:22:08;12.80;99.90
21312;DHT22;18076;52.154;10.570;2022-10-16T05:24:34;12.80;99.90
21312;DHT22;18076;52.154;10.570;2022-10-16T05:26:59;12.80;99.90
21312;DHT22;18076;52.154;10.570;2022-10-16T05:29:25;12.70;99.90
21312;DHT22;18076;52.154;10.570;2022-10-16T05:31:51;12.70;99.90
21312;DHT22;18076;52.154;10.570;2022-10-16T05:34:17;12.60;99.90
21312;DHT22;18076;52.154;10.570;2022-10-16T05:36:42;12.70;99.90
21312;DHT22;18076;52.154;10.570;2022-10-16T05:39:10;12.70;99.90
21312;DHT22;18076;52.154;10.570;2022-10-16T05:41:36;12.60;99.90
21312;DHT22;18076;52.154;10.570;2022-10-16T05:44:05;12.60;99.90
21312;DHT22;18076;52.154;10.570;2022-10-16T05:46:31;12.60;99.90
21312;DHT22;18076;52.154;10.570;2022-10-16T05:48:57;12.60;99.90
21312;DHT22;18076;52.154;10.570;2022-10-16T05:51:23;12.60;99.90
21312;DHT22;18076;52.154;10.570;2022-10-16T05:53:48;12.70;99.90
21312;DHT22;18076;52.154;10.570;2022-10-16T05:56:14;12.70;99.90
21312;DHT22;18076;52.154;10.570;2022-10-16T05:58:40;12.70;99.90
21312;DHT22;18076;52.154;10.570;2022-10-16T06:01:06;12.70;99.90
21312;DHT22;18076;52.154;10.570;2022-10-16T06:03:33;12.70;99.90
21312;DHT22;18076;52.154;10.570;2022-10-16T06:05:58;12.70;99.90
21312;DHT22;18076;52.154;10.570;2022-10-16T06:08:24;12.70;99.90
21312;DHT22;18076;52.154;10.570;2022-10-16T06:11:00;12.70;99.90
21312;DHT22;18076;52.154;10.570;2022-10-16T06:13:25;12.80;99.90
21312;DHT22;18076;52.154;10.570;2022-10-16T06:15:51;12.80;99.90
21312;DHT22;18076;52.154;10.570;2022-10-16T06:18:16;12.80;99.90
21312;DHT22;18076;52.154;10.570;2022-10-16T06:20:42;12.80;99.90
21312;DHT22;18076;52.154;10.570;2022-10-16T06:23:07;12.90;99.90
21312;DHT22;18076;52.154;10.570;2022-10-16T06:25:33;13.00;99.90
21312;DHT22;18076;52.154;10.570;2022-10-16T06:27:59;13.10;99.90
21312;DHT22;18076;52.154;10.570;2022-10-16T06:30:24;13.10;99.90
21312;DHT22;18076;52.154;10.570;2022-10-16T06:32:50;13.20;99.90
21312;DHT22;18076;52.154;10.570;2022-10-16T06:35:15;13.30;99.90
21312;DHT22;18076;52.154;10.570;2022-10-16T06:37:55;13.50;99.90
21312;DHT22;18076;52.154;10.570;2022-10-16T06:40:21;13.50;99.90
21312;DHT22;18076;52.154;10.570;2022-10-16T06:42:46;13.60;99.90
21312;DHT22;18076;52.154;10.570;2022-10-16T06:45:12;13.60;99.90
21312;DHT22;18076;52.154;10.570;2022-10-16T06:47:37;13.70;99.90
21312;DHT22;18076;52.154;10.570;2022-10-16T06:50:03;13.80;99.90
21312;DHT22;18076;52.154;10.570;2022-10-16T06:52:29;13.70;99.90
21312;DHT22;18076;52.154;10.570;2022-10-16T06:54:54;13.70;99.90
21312;DHT22;18076;52.154;10.570;2022-10-16T06:57:20;13.60;99.90
21312;DHT22;18076;52.154;10.570;2022-10-16T06:59:45;13.70;99.90
21312;DHT22;18076;52.154;10.570;2022-10-16T07:02:11;13.70;99.90
21312;DHT22;18076;52.154;10.570;2022-10-16T07:04:37;13.70;99.90
21312;DHT22;18076;52.154;10.570;2022-10-16T07:07:02;13.80;99.90
21312;DHT22;18076;52.154;10.570;2022-10-16T07:09:28;13.80;99.90
21312;DHT22;18076;52.154;10.570;2022-10-16T07:11:53;13.80;99.90
21312;DHT22;18076;52.154;10.570;2022-10-16T07:14:20;14.30;99.90
21312;DHT22;18076;52.154;10.570;2022-10-16T07:16:46;15.40;99.90
21312;DHT22;18076;52.154;10.570;2022-10-16T07:19:12;16.40;99.90
21312;DHT22;18076;52.154;10.570;2022-10-16T07:21:39;16.90;99.90
21312;DHT22;18076;52.154;10.570;2022-10-16T07:24:06;16.70;99.90
21312;DHT22;18076;52.154;10.570;2022-10-16T07:26:33;16.50;99.90
21312;DHT22;18076;52.154;10.570;2022-10-16T07:28:59;16.80;99.90
21312;DHT22;18076;52.154;10.570;2022-10-16T07:31:25;17.90;99.90
21312;DHT22;18076;52.154;10.570;2022-10-16T07:33:51;19.30;99.90
21312;DHT22;18076;52.154;10.570;2022-10-16T07:36:17;20.30;99.90
21312;DHT22;18076;52.154;10.570;2022-10-16T07:38:43;20.20;99.90
21312;DHT22;18076;52.154;10.570;2022-10-16T07:41:10;20.40;99.90
21312;DHT22;18076;52.154;10.570;2022-10-16T07:43:36;21.20;99.90
21312;DHT22;18076;52.154;10.570;2022-10-16T07:46:02;21.50;99.90
21312;DHT22;18076;52.154;10.570;2022-10-16T07:48:29;21.70;99.90
21312;DHT22;18076;52.154;10.570;2022-10-16T07:50:58;22.30;99.90
21312;DHT22;18076;52.154;10.570;2022-10-16T07:53:24;22.20;99.90
21312;DHT22;18076;52.154;10.570;2022-10-16T07:55:50;22.30;99.90
21312;DHT22;18076;52.154;10.570;2022-10-16T07:58:16;22.20;99.90
21312;DHT22;18076;52.154;10.570;2022-10-16T08:00:41;22.10;99.90
21312;DHT22;18076;52.154;10.570;2022-10-16T08:03:07;22.00;99.90
21312;DHT22;18076;52.154;10.570;2022-10-16T08:05:33;22.70;99.90
21312;DHT22;18076;52.154;10.570;2022-10-16T08:07:59;22.90;99.90
21312;DHT22;18076;52.154;10.570;2022-10-16T08:10:26;22.00;99.90
21312;DHT22;18076;52.154;10.570;2022-10-16T08:12:52;21.40;99.90
21312;DHT22;18076;52.154;10.570;2022-10-16T08:15:18;21.80;99.90
21312;DHT22;18076;52.154;10.570;2022-10-16T08:17:43;22.70;99.90
21312;DHT22;18076;52.154;10.570;2022-10-16T08:20:09;23.00;99.90
21312;DHT22;18076;52.154;10.570;2022-10-16T08:22:35;23.00;99.90
21312;DHT22;18076;52.154;10.570;2022-10-16T08:25:00;22.20;99.90
21312;DHT22;18076;52.154;10.570;2022-10-16T08:27:30;21.10;99.90
21312;DHT22;18076;52.154;10.570;2022-10-16T08:29:56;20.10;99.90
21312;DHT22;18076;52.154;10.570;2022-10-16T08:32:21;19.30;99.90
21312;DHT22;18076;52.154;10.570;2022-10-16T08:34:47;20.00;99.90
21312;DHT22;18076;52.154;10.570;2022-10-16T08:37:13;21.10;99.90
21312;DHT22;18076;52.154;10.570;2022-10-16T08:39:39;22.10;99.90
21312;DHT22;18076;52.154;10.570;2022-10-16T08:47:25;20.60;99.90
21312;DHT22;18076;52.154;10.570;2022-10-16T08:50:02;20.80;99.90
21312;DHT22;18076;52.154;10.570;2022-10-16T08:52:33;21.40;99.90
21312;DHT22;18076;52.154;10.570;2022-10-16T08:55:00;21.30;99.90
21312;DHT22;18076;52.154;10.570;2022-10-16T08:57:27;20.70;99.90
21312;DHT22;18076;52.154;10.570;2022-10-16T08:59:53;20.10;99.90
21312;DHT22;18076;52.154;10.570;2022-10-16T09:02:38;19.70;99.90
21312;DHT22;18076;52.154;10.570;2022-10-16T09:10:16;18.50;99.90
21312;DHT22;18076;52.154;10.570;2022-10-16T09:17:49;18.20;99.90
21312;DHT22;18076;52.154;10.570;2022-10-16T09:20:28;18.40;99.90
21312;DHT22;18076;52.154;10.570;2022-10-16T09:25:29;18.80;99.90
21312;DHT22;18076;52.154;10.570;2022-10-16T09:27:55;18.80;99.90
21312;DHT22;18076;52.154;10.570;2022-10-16T09:30:21;18.90;99.90
21312;DHT22;18076;52.154;10.570;2022-10-16T09:32:50;18.70;99.90
21312;DHT22;18076;52.154;10.570;2022-10-16T09:35:18;18.50;99.90
21312;DHT22;18076;52.154;10.570;2022-10-16T09:37:45;18.50;99.90
21312;DHT22;18076;52.154;10.570;2022-10-16T09:40:12;18.60;99.90
21312;DHT22;18076;52.154;10.570;2022-10-16T09:42:38;19.00;99.90
21312;DHT22;18076;52.154;10.570;2022-10-16T09:45:04;19.10;99.90
21312;DHT22;18076;52.154;10.570;2022-10-16T09:47:30;18.90;99.90
21312;DHT22;18076;52.154;10.570;2022-10-16T09:49:57;18.80;99.90
21312;DHT22;18076;52.154;10.570;2022-10-16T09:52:25;18.60;99.90
21312;DHT22;18076;52.154;10.570;2022-10-16T09:54:54;18.60;99.90
21312;DHT22;18076;52.154;10.570;2022-10-16T09:57:20;18.70;99.90
21312;DHT22;18076;52.154;10.570;2022-10-16T09:59:47;18.70;99.90
21312;DHT22;18076;52.154;10.570;2022-10-16T10:02:14;18.60;99.90
21312;DHT22;18076;52.154;10.570;2022-10-16T10:04:48;18.70;99.90
21312;DHT22;18076;52.154;10.570;2022-10-16T10:07:18;19.10;99.90
21312;DHT22;18076;52.154;10.570;2022-10-16T10:09:46;19.80;99.90
21312;DHT22;18076;52.154;10.570;2022-10-16T10:12:30;20.90;99.90
21312;DHT22;18076;52.154;10.570;2022-10-16T10:15:06;21.80;99.90
21312;DHT22;18076;52.154;10.570;2022-10-16T10:17:32;22.60;99.90
21312;DHT22;18076;52.154;10.570;2022-10-16T10:32:39;23.60;99.90
21312;DHT22;18076;52.154;10.570;2022-10-16T10:35:17;23.30;99.90
21312;DHT22;18076;52.154;10.570;2022-10-16T10:42:44;24.10;99.90
21312;DHT22;18076;52.154;10.570;2022-10-16T10:55:21;21.60;99.90
21312;DHT22;18076;52.154;10.570;2022-10-16T10:57:56;21.30;99.90
21312;DHT22;18076;52.154;10.570;2022-10-16T11:00:28;21.40;99.90
21312;DHT22;18076;52.154;10.570;2022-10-16T11:08:10;22.20;99.90
21312;DHT22;18076;52.154;10.570;2022-10-16T11:10:44;22.30;99.90
21312;DHT22;18076;52.154;10.570;2022-10-16T11:13:16;22.70;99.90
21312;DHT22;18076;52.154;10.570;2022-10-16T11:15:43;22.40;99.90
21312;DHT22;18076;52.154;10.570;2022-10-16T11:18:16;22.10;99.90
21312;DHT22;18076;52.154;10.570;2022-10-16T11:20:56;21.80;99.90
21312;DHT22;18076;52.154;10.570;2022-10-16T11:23:24;22.20;99.90
21312;DHT22;18076;52.154;10.570;2022-10-16T11:25:50;22.50;99.90
21312;DHT22;18076;52.154;10.570;2022-10-16T11:28:20;22.60;99.90
21312;DHT22;18076;52.154;10.570;2022-10-16T11:35:59;22.10;99.90
21312;DHT22;18076;52.154;10.570;2022-10-16T11:40:52;22.30;99.90
21312;DHT22;18076;52.154;10.570;2022-10-16T11:43:24;22.30;99.90
21312;DHT22;18076;52.154;10.570;2022-10-16T11:45:51;22.30;99.90
21312;DHT22;18076;52.154;10.570;2022-10-16T11:48:20;22.30;99.90
21312;DHT22;18076;52.154;10.570;2022-10-16T11:53:21;22.40;99.90
21312;DHT22;18076;52.154;10.570;2022-10-16T11:55:48;22.50;99.90
21312;DHT22;18076;52.154;10.570;2022-10-16T12:00:41;22.60;99.90
21312;DHT22;18076;52.154;10.570;2022-10-16T12:08:20;22.80;99.90
21312;DHT22;18076;52.154;10.570;2022-10-16T12:10:46;22.70;99.90
21312;DHT22;18076;52.154;10.570;2022-10-16T12:18:31;22.90;99.90
21312;DHT22;18076;52.154;10.570;2022-10-16T12:20:57;22.90;99.90
21312;DHT22;18076;52.154;10.570;2022-10-16T12:23:26;23.00;99.90
21312;DHT22;18076;52.154;10.570;2022-10-16T12:25:55;23.20;99.90
21312;DHT22;18076;52.154;10.570;2022-10-16T12:28:22;22.90;99.90
21312;DHT22;18076;52.154;10.570;2022-10-16T12:30:58;22.70;99.90
21312;DHT22;18076;52.154;10.570;2022-10-16T12:33:25;22.70;99.90
21312;DHT22;18076;52.154;10.570;2022-10-16T12:35:51;22.90;99.90
21312;DHT22;18076;52.154;10.570;2022-10-16T12:39:02;23.00;99.90
21312;DHT22;18076;52.154;10.570;2022-10-16T12:41:06;22.80;99.90
21312;DHT22;18076;52.154;10.570;2022-10-16T12:43:44;22.80;99.90
21312;DHT22;18076;52.154;10.570;2022-10-16T12:48:36;23.20;99.90
21312;DHT22;18076;52.154;10.570;2022-10-16T12:53:37;23.30;99.90
21312;DHT22;18076;52.154;10.570;2022-10-16T12:56:17;23.00;99.90
21312;DHT22;18076;52.154;10.570;2022-10-16T13:01:23;22.80;99.90
21312;DHT22;18076;52.154;10.570;2022-10-16T13:09:02;23.30;99.90
21312;DHT22;18076;52.154;10.570;2022-10-16T13:17:02;24.00;99.90
21312;DHT22;18076;52.154;10.570;2022-10-16T13:19:38;24.00;99.90
21312;DHT22;18076;52.154;10.570;2022-10-16T13:22:20;23.80;99.90
21312;DHT22;18076;52.154;10.570;2022-10-16T13:24:54;23.80;99.90
21312;DHT22;18076;52.154;10.570;2022-10-16T13:30:08;23.60;99.90
21312;DHT22;18076;52.154;10.570;2022-10-16T13:32:35;23.60;99.90
21312;DHT22;18076;52.154;10.570;2022-10-16T13:35:01;23.30;99.90
21312;DHT22;18076;52.154;10.570;2022-10-16T13:37:27;23.30;99.90
21312;DHT22;18076;52.154;10.570;2022-10-16T13:40:02;23.30;99.90
21312;DHT22;18076;52.154;10.570;2022-10-16T13:42:27;23.20;99.90
21312;DHT22;18076;52.154;10.570;2022-10-16T13:44:54;23.10;99.90
21312;DHT22;18076;52.154;10.570;2022-10-16T13:47:21;23.00;99.90
21312;DHT22;18076;52.154;10.570;2022-10-16T13:49:47;22.80;99.90
21312;DHT22;18076;52.154;10.570;2022-10-16T13:52:23;22.60;99.90
21312;DHT22;18076;52.154;10.570;2022-10-16T13:54:49;22.40;99.90
21312;DHT22;18076;52.154;10.570;2022-10-16T13:57:15;22.30;99.90
21312;DHT22;18076;52.154;10.570;2022-10-16T13:59:40;22.20;99.90
21312;DHT22;18076;52.154;10.570;2022-10-16T14:05:02;21.90;99.90
21312;DHT22;18076;52.154;10.570;2022-10-16T14:07:30;21.90;99.90
21312;DHT22;18076;52.154;10.570;2022-10-16T14:09:58;21.90;99.90
21312;DHT22;18076;52.154;10.570;2022-10-16T14:12:26;21.80;99.90
21312;DHT22;18076;52.154;10.570;2022-10-16T14:14:52;21.80;99.90
21312;DHT22;18076;52.154;10.570;2022-10-16T14:17:22;21.80;99.90
21312;DHT22;18076;52.154;10.570;2022-10-16T14:19:50;21.90;99.90
21312;DHT22;18076;52.154;10.570;2022-10-16T14:24:44;21.60;99.90
21312;DHT22;18076;52.154;10.570;2022-10-16T14:27:28;21.40;99.90
21312;DHT22;18076;52.154;10.570;2022-10-16T14:32:40;20.80;99.90
21312;DHT22;18076;52.154;10.570;2022-10-16T14:35:11;20.70;99.90
21312;DHT22;18076;52.154;10.570;2022-10-16T14:37:50;20.60;99.90
21312;DHT22;18076;52.154;10.570;2022-10-16T14:40:16;20.40;99.90
21312;DHT22;18076;52.154;10.570;2022-10-16T14:42:43;20.30;99.90
21312;DHT22;18076;52.154;10.570;2022-10-16T14:45:09;20.20;99.90
21312;DHT22;18076;52.154;10.570;2022-10-16T14:47:37;20.10;99.90
21312;DHT22;18076;52.154;10.570;2022-10-16T14:50:16;20.20;99.90
21312;DHT22;18076;52.154;10.570;2022-10-16T14:52:41;20.20;99.90
21312;DHT22;18076;52.154;10.570;2022-10-16T14:55:09;20.20;99.90
21312;DHT22;18076;52.154;10.570;2022-10-16T14:57:35;20.20;99.90
21312;DHT22;18076;52.154;10.570;2022-10-16T15:00:02;20.30;99.90
21312;DHT22;18076;52.154;10.570;2022-10-16T15:02:31;20.40;99.90
21312;DHT22;18076;52.154;10.570;2022-10-16T15:04:58;20.50;99.90
21312;DHT22;18076;52.154;10.570;2022-10-16T15:07:28;20.60;99.90
21312;DHT22;18076;52.154;10.570;2022-10-16T15:09:53;20.70;99.90
21312;DHT22;18076;52.154;10.570;2022-10-16T15:12:20;20.60;99.90
21312;DHT22;18076;52.154;10.570;2022-10-16T15:14:45;20.60;99.90
21312;DHT22;18076;52.154;10.570;2022-10-16T15:17:11;20.50;99.90
21312;DHT22;18076;52.154;10.570;2022-10-16T15:19:36;20.40;99.90
21312;DHT22;18076;52.154;10.570;2022-10-16T15:22:02;20.40;99.90
21312;DHT22;18076;52.154;10.570;2022-10-16T15:24:28;20.40;99.90
21312;DHT22;18076;52.154;10.570;2022-10-16T15:26:53;20.40;99.90
21312;DHT22;18076;52.154;10.570;2022-10-16T15:29:19;20.30;99.90
21312;DHT22;18076;52.154;10.570;2022-10-16T15:31:44;20.20;99.90
21312;DHT22;18076;52.154;10.570;2022-10-16T15:34:12;20.20;99.90
21312;DHT22;18076;52.154;10.570;2022-10-16T15:36:38;20.20;99.90
21312;DHT22;18076;52.154;10.570;2022-10-16T15:39:25;20.20;99.90
21312;DHT22;18076;52.154;10.570;2022-10-16T15:41:50;20.10;99.90
21312;DHT22;18076;52.154;10.570;2022-10-16T15:44:16;20.00;99.90
21312;DHT22;18076;52.154;10.570;2022-10-16T15:46:42;20.00;99.90
21312;DHT22;18076;52.154;10.570;2022-10-16T15:49:08;19.90;99.90
21312;DHT22;18076;52.154;10.570;2022-10-16T15:51:34;19.80;99.90
21312;DHT22;18076;52.154;10.570;2022-10-16T15:54:02;19.80;99.90
21312;DHT22;18076;52.154;10.570;2022-10-16T15:56:28;19.70;99.90
21312;DHT22;18076;52.154;10.570;2022-10-16T15:58:54;19.60;99.90
21312;DHT22;18076;52.154;10.570;2022-10-16T16:01:20;19.50;99.90
21312;DHT22;18076;52.154;10.570;2022-10-16T16:03:46;19.40;99.90
21312;DHT22;18076;52.154;10.570;2022-10-16T16:06:13;19.20;99.90
21312;DHT22;18076;52.154;10.570;2022-10-16T16:08:39;19.10;99.90
21312;DHT22;18076;52.154;10.570;2022-10-16T16:11:08;18.90;99.90
21312;DHT22;18076;52.154;10.570;2022-10-16T16:13:34;18.80;99.90
21312;DHT22;18076;52.154;10.570;2022-10-16T16:16:00;18.60;99.90
21312;DHT22;18076;52.154;10.570;2022-10-16T16:18:25;18.40;99.90
21312;DHT22;18076;52.154;10.570;2022-10-16T16:20:51;18.20;99.90
21312;DHT22;18076;52.154;10.570;2022-10-16T16:23:17;18.00;99.90
21312;DHT22;18076;52.154;10.570;2022-10-16T16:25:43;17.90;99.90
21312;DHT22;18076;52.154;10.570;2022-10-16T16:28:08;17.70;99.90
21312;DHT22;18076;52.154;10.570;2022-10-16T16:30:36;17.60;99.90
21312;DHT22;18076;52.154;10.570;2022-10-16T16:33:02;17.40;99.90
21312;DHT22;18076;52.154;10.570;2022-10-16T16:35:28;17.30;99.90
21312;DHT22;18076;52.154;10.570;2022-10-16T16:37:53;17.10;99.90
21312;DHT22;18076;52.154;10.570;2022-10-16T16:40:19;17.10;99.90
21312;DHT22;18076;52.154;10.570;2022-10-16T16:42:47;16.90;99.90
21312;DHT22;18076;52.154;10.570;2022-10-16T16:45:12;16.80;99.90
21312;DHT22;18076;52.154;10.570;2022-10-16T16:47:38;16.70;99.90
21312;DHT22;18076;52.154;10.570;2022-10-16T16:50:04;16.60;99.90
21312;DHT22;18076;52.154;10.570;2022-10-16T16:52:30;16.50;99.90
21312;DHT22;18076;52.154;10.570;2022-10-16T16:54:55;16.40;99.90
21312;DHT22;18076;52.154;10.570;2022-10-16T16:57:21;16.40;99.90
21312;DHT22;18076;52.154;10.570;2022-10-16T16:59:46;16.30;99.90
21312;DHT22;18076;52.154;10.570;2022-10-16T17:02:12;16.30;99.90
21312;DHT22;18076;52.154;10.570;2022-10-16T17:04:38;16.10;99.90
21312;DHT22;18076;52.154;10.570;2022-10-16T17:07:03;16.10;99.90
21312;DHT22;18076;52.154;10.570;2022-10-16T17:09:31;15.90;99.90
21312;DHT22;18076;52.154;10.570;2022-10-16T17:11:56;15.90;99.90
21312;DHT22;18076;52.154;10.570;2022-10-16T17:14:22;15.90;99.90
21312;DHT22;18076;52.154;10.570;2022-10-16T17:16:47;15.80;99.90